createdAt,value
2018-11-04T00:01:53.114Z,10.60
2018-11-04T00:04:21.641Z,10.65
2018-11-04T00:06:50.240Z,10.65
2018-11-04T00:09:18.790Z,10.63
2018-11-04T00:11:47.454Z,10.64
2018-11-04T00:14:16.041Z,10.61
2018-11-04T00:16:46.722Z,10.63
2018-11-04T00:19:15.404Z,10.60
2018-11-04T00:21:43.971Z,10.60
2018-11-04T00:24:12.667Z,10.65
2018-11-04T00:26:41.268Z,10.69
2018-11-04T00:29:09.859Z,10.66
2018-11-04T00:31:38.546Z,10.66
2018-11-04T00:34:07.145Z,10.66
2018-11-04T00:36:35.734Z,10.67
2018-11-04T00:39:05.474Z,10.63
2018-11-04T00:41:34.027Z,10.61
2018-11-04T00:44:02.622Z,10.67
2018-11-04T00:46:31.169Z,10.68
2018-11-04T00:48:59.691Z,10.69
2018-11-04T00:51:28.285Z,10.68
2018-11-04T00:53:56.839Z,10.65
2018-11-04T00:56:25.381Z,10.61
2018-11-04T00:58:54.053Z,10.61
2018-11-04T01:01:22.659Z,10.60
2018-11-04T01:03:51.204Z,10.59
2018-11-04T01:06:19.793Z,10.60
2018-11-04T01:08:48.415Z,10.58
2018-11-04T01:11:16.990Z,10.59
2018-11-04T01:13:45.561Z,10.62
2018-11-04T01:16:14.118Z,10.63
2018-11-04T01:18:42.665Z,10.60
2018-11-04T01:21:11.311Z,10.59
2018-11-04T01:23:40.043Z,10.60
2018-11-04T01:26:08.587Z,10.61
2018-11-04T01:28:37.157Z,10.61
2018-11-04T01:31:05.697Z,10.61
2018-11-04T01:33:34.295Z,10.63
2018-11-04T01:36:02.908Z,10.65
2018-11-04T01:38:31.470Z,10.66
2018-11-04T01:41:00.038Z,10.65
2018-11-04T01:43:28.624Z,10.61
2018-11-04T01:45:57.173Z,10.58
2018-11-04T01:48:25.726Z,10.60
2018-11-04T01:50:54.310Z,10.61
2018-11-04T01:53:22.834Z,10.57
2018-11-04T01:55:51.386Z,10.57
2018-11-04T01:58:20.010Z,10.59
2018-11-04T02:00:48.665Z,10.62
2018-11-04T02:03:17.190Z,10.64
2018-11-04T02:05:46.124Z,10.65
2018-11-04T02:08:14.650Z,10.69
2018-11-04T02:10:43.193Z,10.68
2018-11-04T02:13:11.789Z,10.64
2018-11-04T02:15:40.361Z,10.60
2018-11-04T02:18:08.900Z,10.58
2018-11-04T02:20:37.486Z,10.59
2018-11-04T02:23:06.090Z,10.58
2018-11-04T02:25:34.641Z,10.62
2018-11-04T02:28:03.234Z,10.60
2018-11-04T02:30:31.793Z,10.57
2018-11-04T02:33:00.436Z,10.61
2018-11-04T02:35:29.035Z,10.63
2018-11-04T02:37:57.581Z,10.67
2018-11-04T02:40:26.114Z,10.69
2018-11-04T02:42:54.688Z,10.69
2018-11-04T02:45:23.226Z,10.67
2018-11-04T02:47:51.813Z,10.65
2018-11-04T02:50:22.263Z,10.72
2018-11-04T02:52:51.003Z,10.75
2018-11-04T02:55:19.546Z,10.74
2018-11-04T02:57:48.145Z,10.72
2018-11-04T03:00:16.746Z,10.73
2018-11-04T03:02:45.361Z,10.70
2018-11-04T03:05:14.331Z,10.74
2018-11-04T03:07:43.716Z,10.78
2018-11-04T03:10:13.839Z,10.73
2018-11-04T03:12:42.461Z,10.73
2018-11-04T03:15:11.142Z,10.75
2018-11-04T03:17:39.683Z,10.74
2018-11-04T03:20:08.322Z,10.78
2018-11-04T03:22:36.845Z,10.76
2018-11-04T03:25:06.358Z,10.77
2018-11-04T03:27:35.012Z,10.74
2018-11-04T03:30:03.578Z,10.71
2018-11-04T03:32:32.093Z,10.71
2018-11-04T03:35:00.703Z,10.65
2018-11-04T03:37:29.238Z,10.65
2018-11-04T03:39:57.769Z,10.61
2018-11-04T03:42:26.335Z,10.62
2018-11-04T03:44:54.885Z,10.58
2018-11-04T03:47:23.448Z,10.50
2018-11-04T03:49:52.039Z,10.52
2018-11-04T03:52:20.577Z,10.58
2018-11-04T03:54:49.144Z,10.63
2018-11-04T03:57:17.717Z,10.66
2018-11-04T03:59:46.272Z,10.67
2018-11-04T04:02:14.839Z,10.65
2018-11-04T04:04:43.535Z,10.65
2018-11-04T04:07:12.090Z,10.65
2018-11-04T04:09:40.654Z,10.60
2018-11-04T04:12:09.428Z,10.59
2018-11-04T04:14:37.941Z,10.60
2018-11-04T04:17:06.478Z,10.59
2018-11-04T04:19:35.067Z,10.57
2018-11-04T04:22:03.599Z,10.53
2018-11-04T04:24:32.142Z,10.54
2018-11-04T04:27:00.724Z,10.59
2018-11-04T04:29:29.242Z,10.56
2018-11-04T04:31:57.818Z,10.52
2018-11-04T04:34:26.399Z,10.50
2018-11-04T04:36:54.930Z,10.53
2018-11-04T04:39:23.520Z,10.48
2018-11-04T04:41:52.090Z,10.49
2018-11-04T04:44:20.686Z,10.50
2018-11-04T04:46:49.221Z,10.52
2018-11-04T04:49:17.792Z,10.51
2018-11-04T04:51:46.343Z,10.50
2018-11-04T04:54:14.885Z,10.48
2018-11-04T04:56:43.505Z,10.48
2018-11-04T04:59:12.045Z,10.45
2018-11-04T05:01:40.597Z,10.50
2018-11-04T05:04:09.169Z,10.55
2018-11-04T05:06:37.793Z,10.56
2018-11-04T05:09:07.046Z,10.61
2018-11-04T05:11:35.652Z,10.63
2018-11-04T05:14:04.204Z,10.59
2018-11-04T05:16:32.761Z,10.60
2018-11-04T05:19:01.326Z,10.64
2018-11-04T05:21:29.862Z,10.62
2018-11-04T05:23:58.389Z,10.69
2018-11-04T05:26:26.991Z,10.71
2018-11-04T05:28:55.558Z,10.67
2018-11-04T05:31:24.110Z,10.63
2018-11-04T05:33:52.684Z,10.55
2018-11-04T05:36:21.213Z,10.51
2018-11-04T05:38:49.729Z,10.51
2018-11-04T05:41:18.302Z,10.50
2018-11-04T05:43:46.898Z,10.54
2018-11-04T05:46:15.481Z,10.56
2018-11-04T05:48:44.062Z,10.49
2018-11-04T05:51:12.577Z,10.54
2018-11-04T05:53:41.713Z,10.53
2018-11-04T05:56:10.950Z,10.54
2018-11-04T05:58:39.480Z,10.52
2018-11-04T06:01:08.299Z,10.50
2018-11-04T06:03:36.849Z,10.54
2018-11-04T06:06:05.498Z,10.53
2018-11-04T06:08:34.306Z,10.52
2018-11-04T06:11:03.029Z,10.56
2018-11-04T06:13:31.635Z,10.56
2018-11-04T06:16:00.170Z,10.58
2018-11-04T06:18:28.838Z,10.65
2018-11-04T06:20:57.459Z,10.66
2018-11-04T06:23:26.022Z,10.65
2018-11-04T06:25:54.588Z,10.68
2018-11-04T06:28:23.329Z,10.65
2018-11-04T06:30:51.861Z,10.66
2018-11-04T06:33:20.429Z,10.66
2018-11-04T06:35:48.996Z,10.67
2018-11-04T06:38:17.585Z,10.62
2018-11-04T06:40:46.173Z,10.61
2018-11-04T06:43:14.717Z,10.57
2018-11-04T06:45:43.265Z,10.61
2018-11-04T06:48:11.930Z,10.65
2018-11-04T06:50:40.474Z,10.69
2018-11-04T06:53:09.082Z,10.69
2018-11-04T06:55:37.653Z,10.71
2018-11-04T06:58:06.595Z,10.72
2018-11-04T07:00:35.227Z,10.73
2018-11-04T07:03:03.813Z,10.77
2018-11-04T07:05:32.342Z,10.82
2018-11-04T07:08:00.913Z,10.85
2018-11-04T07:10:29.562Z,10.83
2018-11-04T07:12:58.126Z,10.86
2018-11-04T07:15:26.658Z,10.86
2018-11-04T07:17:55.209Z,10.88
2018-11-04T07:20:23.794Z,10.91
2018-11-04T07:22:52.382Z,10.89
2018-11-04T07:25:24.991Z,10.91
2018-11-04T07:27:53.555Z,10.87
2018-11-04T07:30:22.102Z,10.87
2018-11-04T07:32:50.695Z,10.89
2018-11-04T07:35:19.309Z,10.89
2018-11-04T07:37:47.849Z,10.91
2018-11-04T07:40:16.442Z,10.90
2018-11-04T07:42:45.028Z,10.95
2018-11-04T07:45:13.602Z,10.96
2018-11-04T07:47:42.170Z,11.02
2018-11-04T07:50:13.253Z,11.07
2018-11-04T07:52:42.281Z,11.11
2018-11-04T07:55:10.966Z,11.12
2018-11-04T07:57:41.183Z,11.15
2018-11-04T08:00:12.530Z,11.21
2018-11-04T08:02:41.469Z,11.19
2018-11-04T08:05:11.046Z,11.21
2018-11-04T08:07:40.298Z,11.32
2018-11-04T08:10:11.188Z,11.40
2018-11-04T08:12:40.213Z,11.48
2018-11-04T08:15:09.237Z,11.50
2018-11-04T08:17:38.026Z,11.46
2018-11-04T08:20:07.266Z,11.52
2018-11-04T08:22:35.850Z,11.50
2018-11-04T08:25:04.429Z,11.47
2018-11-04T08:27:33.400Z,11.40
2018-11-04T08:30:02.303Z,11.42
2018-11-04T08:32:30.815Z,11.47
2018-11-04T08:34:59.342Z,11.55
2018-11-04T08:37:27.926Z,11.60
2018-11-04T08:39:57.118Z,11.68
2018-11-04T08:42:25.809Z,11.73
2018-11-04T08:44:54.461Z,11.82
2018-11-04T08:47:23.006Z,11.91
2018-11-04T08:49:51.613Z,11.96
2018-11-04T08:52:20.196Z,11.98
2018-11-04T08:54:48.769Z,11.97
2018-11-04T08:57:17.328Z,11.96
2018-11-04T08:59:45.938Z,11.97
2018-11-04T09:02:14.526Z,11.98
2018-11-04T09:04:43.094Z,12.04
2018-11-04T09:07:11.734Z,12.11
2018-11-04T09:09:40.628Z,12.22
2018-11-04T09:12:09.173Z,12.18
2018-11-04T09:14:37.798Z,12.17
2018-11-04T09:17:06.970Z,12.15
2018-11-04T09:19:35.541Z,12.09
2018-11-04T09:22:04.452Z,12.09
2018-11-04T09:24:33.236Z,12.05
2018-11-04T09:27:01.853Z,12.07
2018-11-04T09:29:30.466Z,12.03
2018-11-04T09:31:59.136Z,12.03
2018-11-04T09:34:27.689Z,12.02
2018-11-04T09:36:56.314Z,12.01
2018-11-04T09:39:24.881Z,12.01
2018-11-04T09:41:53.418Z,11.97
2018-11-04T09:44:21.996Z,11.97
2018-11-04T09:46:50.569Z,11.96
2018-11-04T09:49:19.119Z,11.97
2018-11-04T09:51:47.729Z,12.00
2018-11-04T09:54:16.353Z,12.06
2018-11-04T09:56:44.965Z,12.10
2018-11-04T09:59:13.780Z,12.13
2018-11-04T10:01:42.328Z,12.11
2018-11-04T10:04:10.877Z,12.06
2018-11-04T10:06:39.450Z,12.02
2018-11-04T10:09:09.072Z,12.01
2018-11-04T10:11:37.607Z,12.01
2018-11-04T10:14:07.120Z,11.93
2018-11-04T10:16:35.786Z,11.91
2018-11-04T10:19:04.750Z,12.03
2018-11-04T10:21:33.519Z,12.10
2018-11-04T10:24:02.053Z,12.13
2018-11-04T10:26:30.596Z,12.14
2018-11-04T10:28:59.209Z,12.09
2018-11-04T10:31:27.751Z,12.15
2018-11-04T10:33:56.327Z,12.23
2018-11-04T10:36:25.043Z,12.23
2018-11-04T10:38:53.761Z,12.25
2018-11-04T10:41:22.349Z,12.22
2018-11-04T10:43:51.330Z,12.19
2018-11-04T10:46:19.888Z,12.12
2018-11-04T10:48:48.430Z,12.09
2018-11-04T10:51:17.062Z,12.07
2018-11-04T10:53:45.605Z,12.09
2018-11-04T10:56:14.158Z,12.15
2018-11-04T10:58:42.757Z,12.23
2018-11-04T11:01:13.310Z,12.29
2018-11-04T11:03:42.033Z,12.31
2018-11-04T11:06:10.968Z,12.25
2018-11-04T11:08:39.511Z,12.24
2018-11-04T11:11:08.169Z,12.30
2018-11-04T11:13:36.856Z,12.41
2018-11-04T11:16:05.735Z,12.40
2018-11-04T11:18:34.461Z,12.36
2018-11-04T11:21:03.064Z,12.30
2018-11-04T11:23:31.627Z,12.30
2018-11-04T11:26:00.230Z,12.28
2018-11-04T11:28:28.857Z,12.24
2018-11-04T11:30:57.426Z,12.26
2018-11-04T11:33:25.974Z,12.33
2018-11-04T11:35:54.591Z,12.38
2018-11-04T11:38:23.135Z,12.38
2018-11-04T11:40:51.774Z,12.43
2018-11-04T11:43:20.362Z,12.39
2018-11-04T11:45:48.941Z,12.40
2018-11-04T11:48:17.475Z,12.38
2018-11-04T11:50:46.074Z,12.31
2018-11-04T11:53:14.652Z,12.29
2018-11-04T11:55:43.274Z,12.30
2018-11-04T11:58:11.869Z,12.25
2018-11-04T12:00:40.423Z,12.26
2018-11-04T12:03:09.010Z,12.27
2018-11-04T12:05:37.678Z,12.29
2018-11-04T12:08:06.261Z,12.32
2018-11-04T12:10:34.821Z,12.27
2018-11-04T12:13:03.432Z,12.32
2018-11-04T12:15:32.223Z,12.29
2018-11-04T12:18:00.813Z,12.32
2018-11-04T12:20:29.590Z,12.38
2018-11-04T12:22:58.123Z,12.34
2018-11-04T12:25:26.698Z,12.27
2018-11-04T12:27:55.270Z,12.27
2018-11-04T12:30:23.809Z,12.29
2018-11-04T12:32:52.356Z,12.32
2018-11-04T12:35:21.193Z,12.37
2018-11-04T12:37:49.718Z,12.37
2018-11-04T12:40:18.358Z,12.44
2018-11-04T12:42:46.955Z,12.50
2018-11-04T12:45:15.497Z,12.43
2018-11-04T12:47:44.116Z,12.46
2018-11-04T12:50:13.413Z,12.42
2018-11-04T12:52:41.948Z,12.45
2018-11-04T12:55:10.706Z,12.50
2018-11-04T12:57:39.413Z,12.43
2018-11-04T13:00:12.671Z,12.33
2018-11-04T13:02:41.598Z,12.26
2018-11-04T13:05:10.748Z,12.26
2018-11-04T13:07:39.387Z,12.25
2018-11-04T13:10:09.873Z,12.17
2018-11-04T13:12:38.969Z,12.14
2018-11-04T13:15:09.290Z,12.16
2018-11-04T13:17:37.890Z,12.16
2018-11-04T13:20:07.177Z,12.16
2018-11-04T13:22:35.835Z,12.20
2018-11-04T13:25:04.393Z,12.13
2018-11-04T13:27:32.946Z,12.09
2018-11-04T13:30:01.560Z,12.05
2018-11-04T13:32:30.130Z,12.04
2018-11-04T13:34:58.682Z,12.01
2018-11-04T13:37:27.268Z,12.01
2018-11-04T13:39:55.802Z,11.99
2018-11-04T13:42:24.362Z,12.01
2018-11-04T13:44:52.983Z,12.02
2018-11-04T13:47:21.712Z,11.99
2018-11-04T13:49:50.265Z,12.04
2018-11-04T13:52:18.884Z,12.06
2018-11-04T13:54:47.689Z,12.11
2018-11-04T13:57:16.245Z,12.07
2018-11-04T13:59:44.829Z,12.06
2018-11-04T14:02:13.397Z,12.03
2018-11-04T14:04:41.951Z,11.97
2018-11-04T14:07:10.989Z,11.95
2018-11-04T14:09:39.547Z,11.96
2018-11-04T14:12:08.469Z,11.95
2018-11-04T14:14:37.181Z,11.96
2018-11-04T14:17:06.085Z,11.96
2018-11-04T14:19:34.625Z,11.95
2018-11-04T14:22:03.233Z,11.88
2018-11-04T14:24:31.929Z,11.89
2018-11-04T14:27:00.483Z,11.90
2018-11-04T14:29:29.054Z,11.94
2018-11-04T14:31:57.621Z,11.87
2018-11-04T14:34:26.754Z,11.82
2018-11-04T14:36:55.362Z,11.79
2018-11-04T14:39:23.925Z,11.79
2018-11-04T14:41:52.465Z,11.78
2018-11-04T14:44:21.041Z,11.79
2018-11-04T14:46:49.580Z,11.80
2018-11-04T14:49:18.306Z,11.75
2018-11-04T14:51:46.924Z,11.72
2018-11-04T14:54:15.462Z,11.72
2018-11-04T14:56:44.029Z,11.67
2018-11-04T14:59:12.642Z,11.68
2018-11-04T15:01:41.285Z,11.72
2018-11-04T15:04:09.936Z,11.72
2018-11-04T15:06:38.514Z,11.76
2018-11-04T15:09:08.206Z,11.74
2018-11-04T15:11:36.777Z,11.77
2018-11-04T15:14:05.571Z,11.72
2018-11-04T15:16:34.506Z,11.64
2018-11-04T15:19:03.173Z,11.64
2018-11-04T15:21:31.882Z,11.66
2018-11-04T15:24:00.441Z,11.62
2018-11-04T15:26:29.085Z,11.63
2018-11-04T15:28:57.816Z,11.61
2018-11-04T15:31:26.366Z,11.64
2018-11-04T15:33:54.982Z,11.63
2018-11-04T15:36:23.715Z,11.62
2018-11-04T15:38:52.285Z,11.60
2018-11-04T15:41:21.054Z,11.65
2018-11-04T15:43:49.625Z,11.67
2018-11-04T15:46:18.177Z,11.64
2018-11-04T15:48:46.796Z,11.63
2018-11-04T15:51:15.557Z,11.65
2018-11-04T15:53:44.292Z,11.66
2018-11-04T15:56:12.895Z,11.63
2018-11-04T15:58:41.488Z,11.58
2018-11-04T16:01:10.065Z,11.57
2018-11-04T16:03:38.702Z,11.56
2018-11-04T16:06:07.303Z,11.55
2018-11-04T16:08:35.894Z,11.56
2018-11-04T16:11:04.571Z,11.58
2018-11-04T16:13:33.161Z,11.61
2018-11-04T16:16:01.721Z,11.64
2018-11-04T16:18:30.316Z,11.66
2018-11-04T16:20:59.060Z,11.64
2018-11-04T16:23:27.617Z,11.61
2018-11-04T16:25:56.202Z,11.63
2018-11-04T16:28:24.930Z,11.63
2018-11-04T16:30:53.477Z,11.66
2018-11-04T16:33:22.127Z,11.69
2018-11-04T16:35:50.799Z,11.77
2018-11-04T16:38:19.354Z,11.78
2018-11-04T16:40:49.995Z,11.73
2018-11-04T16:43:18.607Z,11.73
2018-11-04T16:45:47.470Z,11.73
2018-11-04T16:48:16.050Z,11.76
2018-11-04T16:50:44.654Z,11.79
2018-11-04T16:53:13.180Z,11.79
2018-11-04T16:55:41.734Z,11.77
2018-11-04T16:58:10.317Z,11.80
2018-11-04T17:00:38.837Z,11.85
2018-11-04T17:03:07.506Z,11.86
2018-11-04T17:05:36.326Z,11.82
2018-11-04T17:08:05.999Z,11.79
2018-11-04T17:10:34.570Z,11.84
2018-11-04T17:13:03.152Z,11.82
2018-11-04T17:15:31.713Z,11.83
2018-11-04T17:18:01.015Z,11.87
2018-11-04T17:20:29.818Z,11.84
2018-11-04T17:22:58.399Z,11.80
2018-11-04T17:25:27.041Z,11.78
2018-11-04T17:27:55.688Z,11.81
2018-11-04T17:30:24.474Z,11.80
2018-11-04T17:32:53.063Z,11.80
2018-11-04T17:35:21.805Z,11.84
2018-11-04T17:37:50.920Z,11.85
2018-11-04T17:40:19.662Z,11.87
2018-11-04T17:42:48.346Z,11.89
2018-11-04T17:45:17.468Z,11.84
2018-11-04T17:47:46.650Z,11.86
2018-11-04T17:50:16.943Z,11.85
2018-11-04T17:52:46.010Z,11.85
2018-11-04T17:55:14.750Z,11.88
2018-11-04T17:57:43.659Z,11.91
2018-11-04T18:00:12.880Z,11.94
2018-11-04T18:02:42.517Z,11.88
2018-11-04T18:05:12.843Z,11.88
2018-11-04T18:07:42.162Z,11.93
2018-11-04T18:10:12.714Z,11.94
2018-11-04T18:12:41.641Z,11.96
2018-11-04T18:15:11.364Z,12.02
2018-11-04T18:17:40.337Z,12.00
2018-11-04T18:20:10.659Z,11.99
2018-11-04T18:22:39.834Z,11.96
2018-11-04T18:25:10.353Z,11.91
2018-11-04T18:27:40.035Z,11.87
2018-11-04T18:30:11.540Z,11.86
2018-11-04T18:32:41.220Z,11.82
2018-11-04T18:35:11.429Z,11.84
2018-11-04T18:37:41.675Z,11.85
2018-11-04T18:40:13.485Z,11.89
2018-11-04T18:42:43.581Z,11.87
2018-11-04T18:45:14.084Z,11.85
2018-11-04T18:47:44.325Z,11.91
2018-11-04T18:50:14.976Z,11.92
2018-11-04T18:52:44.846Z,11.92
2018-11-04T18:55:13.999Z,11.93
2018-11-04T18:57:44.300Z,11.88
2018-11-04T19:00:17.344Z,11.87
2018-11-04T19:02:46.844Z,11.84
2018-11-04T19:05:15.645Z,11.82
2018-11-04T19:07:44.706Z,11.81
2018-11-04T19:10:15.228Z,11.83
2018-11-04T19:12:44.817Z,11.82
2018-11-04T19:15:14.167Z,11.81
2018-11-04T19:17:43.281Z,11.83
2018-11-04T19:20:13.501Z,11.79
2018-11-04T19:22:42.362Z,11.81
2018-11-04T19:25:12.173Z,11.85
2018-11-04T19:27:41.304Z,11.86
2018-11-04T19:30:12.791Z,11.87
2018-11-04T19:32:42.184Z,11.87
2018-11-04T19:35:12.430Z,11.90
2018-11-04T19:37:42.126Z,11.90
2018-11-04T19:40:12.301Z,11.97
2018-11-04T19:42:41.279Z,11.97
2018-11-04T19:45:10.384Z,11.91
2018-11-04T19:47:40.284Z,11.94
2018-11-04T19:50:11.699Z,11.92
2018-11-04T19:52:40.801Z,11.86
2018-11-04T19:55:09.919Z,11.86
2018-11-04T19:57:38.810Z,11.84
2018-11-04T20:00:10.010Z,11.83
2018-11-04T20:02:39.426Z,11.82
2018-11-04T20:05:09.552Z,11.83
2018-11-04T20:07:38.811Z,11.83
2018-11-04T20:10:14.790Z,11.86
2018-11-04T20:12:48.500Z,11.83
2018-11-04T20:15:17.516Z,11.87
2018-11-04T20:17:47.163Z,11.87
2018-11-04T20:20:20.885Z,11.86
2018-11-04T20:22:49.710Z,11.88
2018-11-04T20:25:23.638Z,11.90
2018-11-04T20:27:52.359Z,11.86
2018-11-04T20:30:21.004Z,11.83
2018-11-04T20:32:55.213Z,11.81
2018-11-04T20:35:24.035Z,11.81
2018-11-04T20:37:52.646Z,11.82
2018-11-04T20:40:26.535Z,11.88
2018-11-04T20:42:55.273Z,11.90
2018-11-04T20:45:24.012Z,11.88
2018-11-04T20:47:58.035Z,11.84
2018-11-04T20:50:32.039Z,11.78
2018-11-04T20:53:00.650Z,11.69
2018-11-04T20:55:34.449Z,11.69
2018-11-04T20:58:03.241Z,11.65
2018-11-04T21:00:31.921Z,11.59
2018-11-04T21:03:00.554Z,11.55
2018-11-04T21:05:29.131Z,11.53
2018-11-04T21:07:57.669Z,11.58
2018-11-04T21:10:26.229Z,11.64
2018-11-04T21:12:54.849Z,11.68
2018-11-04T21:15:23.428Z,11.68
2018-11-04T21:17:51.960Z,11.68
2018-11-04T21:20:20.575Z,11.68
2018-11-04T21:22:49.293Z,11.65
2018-11-04T21:25:17.988Z,11.63
2018-11-04T21:27:46.985Z,11.62
2018-11-04T21:30:15.742Z,11.61
2018-11-04T21:32:44.611Z,11.61
2018-11-04T21:35:13.349Z,11.63
2018-11-04T21:37:41.959Z,11.63
2018-11-04T21:40:11.092Z,11.69
2018-11-04T21:42:40.241Z,11.73
2018-11-04T21:45:10.641Z,11.75
2018-11-04T21:47:39.516Z,11.71
2018-11-04T21:50:08.793Z,11.72
2018-11-04T21:52:37.409Z,11.72
2018-11-04T21:55:07.410Z,11.64
2018-11-04T21:57:36.196Z,11.61
2018-11-04T22:00:06.128Z,11.54
2018-11-04T22:02:34.809Z,11.53
2018-11-04T22:05:03.541Z,11.50
2018-11-04T22:07:32.073Z,11.41
2018-11-04T22:10:00.746Z,11.39
2018-11-04T22:12:29.474Z,11.37
2018-11-04T22:20:07.486Z,11.26
2018-11-04T22:22:36.127Z,11.26
2018-11-04T22:25:05.365Z,11.28
2018-11-04T22:27:34.026Z,11.28
2018-11-04T22:30:02.679Z,11.30
2018-11-04T22:32:31.528Z,11.34
2018-11-04T22:35:00.094Z,11.37
2018-11-04T22:37:28.788Z,11.37
2018-11-04T22:39:57.342Z,11.40
2018-11-04T22:42:26.014Z,11.43
2018-11-04T22:44:54.744Z,11.41
2018-11-04T22:47:23.371Z,11.38
2018-11-04T22:49:51.977Z,11.40
2018-11-04T22:52:20.556Z,11.38
2018-11-04T22:54:49.497Z,11.32
2018-11-04T22:57:18.066Z,11.32
2018-11-04T22:59:46.663Z,11.34
2018-11-04T23:02:15.201Z,11.31
2018-11-04T23:12:31.397Z,11.26
2018-11-04T23:15:00.051Z,11.25
2018-11-04T23:17:28.646Z,11.28
2018-11-04T23:19:57.209Z,11.30
2018-11-04T23:22:25.846Z,11.30
2018-11-04T23:24:54.407Z,11.30
2018-11-04T23:27:22.945Z,11.28
2018-11-04T23:29:51.538Z,11.37
2018-11-04T23:32:20.098Z,11.39
2018-11-04T23:34:48.662Z,11.41
2018-11-04T23:37:17.522Z,11.43
2018-11-04T23:39:46.205Z,11.46
2018-11-04T23:42:14.862Z,11.45
2018-11-04T23:44:43.673Z,11.48
2018-11-04T23:47:12.210Z,11.50
2018-11-04T23:49:40.761Z,11.48
2018-11-04T23:52:09.375Z,11.45
2018-11-04T23:54:39.081Z,11.43
2018-11-04T23:57:07.995Z,11.36
2018-11-04T23:59:36.611Z,11.32
